PWSweather.com
Personal Weather Stations
Station Observations
BREAKEY01
Lévis, Breakeyville, QC G6z 7G7

LévisBreakeyville, QC G6z 7G7

Lat: 46.681, Lon: -71.224

Elevation: 328

Station Type: Davis Vantage Pro2

http://www.meteobreakey.com

Latest ConditionsUpdated 2:57:02 PM EST Wednesday, Feb 10, 2016
Currently Today's Max Today's Min Today's Average
Temperature 22.5°F-5.3°C 23.2°F-4.9°C 4.6°F-15.2°C 13.3°F-10.4°C
Dew Point 18.3°F-7.6°C 18.5°F-7.5°C 1.6°F-16.9°C 10.0°F-12.2°C
Winds 2.9 mph NW4.7 kmh NW 2.9 mph NW4.7 kmh NW - 0.2 mph 0.3 kmh
Wind Gusts 2.9 mph4.7 kmh 4.0 mph6.4 kmh - -
Humidity 84% 98% 80% 86%
Pressure 29.53 in1000.0 mb 29.58 in1001.7 mb 29.52 in999.7 mb -
Hour Temp Dew Point Humidity Winds Wind Gusts Pressure Precip Precip Rate Daily Precip Total
02:57 PM 22.5°F-5.3°C 18.3°F-7.6°C 84% 2.9 mph NW4.7 kmh NW 2.9 mph4.7 kmh 29.53 in1000.0 mb - 0.00 in0.0 mm 0.00 in0.0 mm
02:52 PM 22.5°F-5.3°C 18.3°F-7.6°C 84% 2.9 mph NW4.7 kmh NW 4.0 mph6.4 kmh 29.53 in1000.0 mb - 0.00 in0.0 mm 0.00 in0.0 mm
02:47 PM 22.5°F-5.3°C 18.1°F-7.7°C 83% 2.9 mph NNW4.7 kmh NNW 4.0 mph6.4 kmh 29.53 in1000.0 mb - 0.00 in0.0 mm 0.00 in0.0 mm
02:42 PM 22.6°F-5.2°C 18.0°F-7.8°C 82% 2.0 mph NNW3.2 kmh NNW 2.9 mph4.7 kmh 29.53 in1000.0 mb - 0.00 in0.0 mm 0.00 in0.0 mm
02:37 PM 22.6°F-5.2°C 17.8°F-7.9°C 81% 0.9 mph NW1.4 kmh NW 2.0 mph3.2 kmh 29.53 in1000.0 mb - 0.00 in0.0 mm 0.00 in0.0 mm
02:32 PM 22.6°F-5.2°C 17.8°F-7.9°C 81% 0.9 mph NW1.4 kmh NW 2.9 mph4.7 kmh 29.53 in1000.0 mb - 0.00 in0.0 mm 0.00 in0.0 mm
02:27 PM 22.5°F-5.3°C 17.2°F-8.2°C 80% 2.0 mph NW3.2 kmh NW -- 29.53 in1000.0 mb - 0.00 in0.0 mm 0.00 in0.0 mm
02:22 PM 22.6°F-5.2°C 17.4°F-8.1°C 80% 2.0 mph NW3.2 kmh NW 2.0 mph3.2 kmh 29.53 in1000.0 mb - 0.00 in0.0 mm 0.00 in0.0 mm
02:17 PM 22.6°F-5.2°C 17.4°F-8.1°C 80% 2.0 mph NW3.2 kmh NW 2.0 mph3.2 kmh 29.52 in999.7 mb - 0.00 in0.0 mm 0.00 in0.0 mm
02:12 PM 22.8°F-5.1°C 17.6°F-8.0°C 80% 2.0 mph NNW3.2 kmh NNW 0.9 mph1.4 kmh 29.53 in1000.0 mb - 0.00 in0.0 mm 0.00 in0.0 mm
02:07 PM 23.2°F-4.9°C 18.0°F-7.8°C 80% 0.9 mph NNW1.4 kmh NNW 0.9 mph1.4 kmh 29.52 in999.7 mb - 0.00 in0.0 mm 0.00 in0.0 mm
02:02 PM 23.2°F-4.9°C 18.1°F-7.7°C 81% Calm Calm -- 29.52 in999.7 mb - 0.00 in0.0 mm 0.00 in0.0 mm
01:57 PM 23.2°F-4.9°C 18.5°F-7.5°C 82% Calm Calm 0.9 mph1.4 kmh 29.53 in1000.0 mb - 0.00 in0.0 mm 0.00 in0.0 mm
01:52 PM 23.2°F-4.9°C 18.5°F-7.5°C 82% Calm Calm -- 29.53 in1000.0 mb - 0.00 in0.0 mm 0.00 in0.0 mm
01:47 PM 22.8°F-5.1°C 18.1°F-7.7°C 82% Calm Calm -- 29.53 in1000.0 mb - 0.00 in0.0 mm 0.00 in0.0 mm
01:42 PM 22.8°F-5.1°C 18.1°F-7.7°C 82% Calm Calm -- 29.53 in1000.0 mb - 0.00 in0.0 mm 0.00 in0.0 mm
01:37 PM 22.6°F-5.2°C 17.8°F-7.9°C 81% Calm Calm -- 29.52 in999.7 mb - 0.00 in0.0 mm 0.00 in0.0 mm
01:32 PM 22.6°F-5.2°C 17.8°F-7.9°C 81% Calm Calm -- 29.52 in999.7 mb - 0.00 in0.0 mm 0.00 in0.0 mm
01:27 PM 22.6°F-5.2°C 17.8°F-7.9°C 81% Calm Calm -- 29.52 in999.7 mb - 0.00 in0.0 mm 0.00 in0.0 mm
01:22 PM 22.6°F-5.2°C 17.8°F-7.9°C 81% Calm Calm -- 29.53 in1000.0 mb - 0.00 in0.0 mm 0.00 in0.0 mm
01:17 PM 22.6°F-5.2°C 17.8°F-7.9°C 81% Calm Calm -- 29.53 in1000.0 mb - 0.00 in0.0 mm 0.00 in0.0 mm
01:12 PM 22.6°F-5.2°C 17.4°F-8.1°C 80% Calm Calm -- 29.53 in1000.0 mb - 0.00 in0.0 mm 0.00 in0.0 mm
01:07 PM 22.6°F-5.2°C 17.4°F-8.1°C 80% Calm Calm -- 29.53 in1000.0 mb - 0.00 in0.0 mm 0.00 in0.0 mm
01:02 PM 22.6°F-5.2°C 17.4°F-8.1°C 80% Calm Calm -- 29.53 in1000.0 mb - 0.00 in0.0 mm 0.00 in0.0 mm
12:57 PM 22.6°F-5.2°C 17.4°F-8.1°C 80% 0.9 mph WNW1.4 kmh WNW -- 29.53 in1000.0 mb - 0.00 in0.0 mm 0.00 in0.0 mm
12:52 PM 22.6°F-5.2°C 17.4°F-8.1°C 80% Calm Calm -- 29.53 in1000.0 mb - 0.00 in0.0 mm 0.00 in0.0 mm
12:47 PM 22.5°F-5.3°C 17.6°F-8.0°C 81% Calm Calm -- 29.53 in1000.0 mb - 0.00 in0.0 mm 0.00 in0.0 mm
12:42 PM 22.3°F-5.4°C 17.6°F-8.0°C 82% Calm Calm -- 29.53 in1000.0 mb - 0.00 in0.0 mm 0.00 in0.0 mm
12:37 PM 22.1°F-5.5°C 17.2°F-8.2°C 81% Calm Calm -- 29.54 in1000.3 mb - 0.00 in0.0 mm 0.00 in0.0 mm
12:32 PM 21.9°F-5.6°C 17.6°F-8.0°C 83% Calm Calm -- 29.53 in1000.0 mb - 0.00 in0.0 mm 0.00 in0.0 mm
12:27 PM 21.6°F-5.8°C 17.2°F-8.2°C 83% Calm Calm -- 29.53 in1000.0 mb - 0.00 in0.0 mm 0.00 in0.0 mm
12:22 PM 21.2°F-6.0°C 16.5°F-8.6°C 82% Calm Calm -- 29.54 in1000.3 mb - 0.00 in0.0 mm 0.00 in0.0 mm
12:17 PM 21.2°F-6.0°C 16.5°F-8.6°C 82% Calm Calm 0.9 mph1.4 kmh 29.54 in1000.3 mb - 0.00 in0.0 mm 0.00 in0.0 mm
12:12 PM 21.2°F-6.0°C 16.9°F-8.4°C 83% Calm Calm -- 29.54 in1000.3 mb - 0.00 in0.0 mm 0.00 in0.0 mm
12:07 PM 21.2°F-6.0°C 16.9°F-8.4°C 83% Calm Calm -- 29.54 in1000.3 mb - 0.00 in0.0 mm 0.00 in0.0 mm
12:02 PM 21.0°F-6.1°C 16.9°F-8.4°C 84% 0.9 mph WSW1.4 kmh WSW -- 29.54 in1000.3 mb - 0.00 in0.0 mm 0.00 in0.0 mm
11:57 AM 20.7°F-6.3°C 16.5°F-8.6°C 84% Calm Calm -- 29.55 in1000.7 mb - 0.00 in0.0 mm 0.00 in0.0 mm
11:52 AM 20.3°F-6.5°C 16.5°F-8.6°C 85% Calm Calm -- 29.55 in1000.7 mb - 0.00 in0.0 mm 0.00 in0.0 mm
11:47 AM 19.9°F-6.7°C 16.0°F-8.9°C 84% Calm Calm -- 29.55 in1000.7 mb - 0.00 in0.0 mm 0.00 in0.0 mm
11:42 AM 19.8°F-6.8°C 15.8°F-9.0°C 84% Calm Calm -- 29.55 in1000.7 mb - 0.00 in0.0 mm 0.00 in0.0 mm
11:37 AM 19.8°F-6.8°C 15.8°F-9.0°C 84% Calm Calm -- 29.55 in1000.7 mb - 0.00 in0.0 mm 0.00 in0.0 mm
11:32 AM 19.8°F-6.8°C 15.8°F-9.0°C 84% Calm Calm 0.9 mph1.4 kmh 29.55 in1000.7 mb - 0.00 in0.0 mm 0.00 in0.0 mm
11:27 AM 19.6°F-6.9°C 15.8°F-9.0°C 85% Calm Calm -- 29.55 in1000.7 mb - 0.00 in0.0 mm 0.00 in0.0 mm
11:22 AM 19.2°F-7.1°C 15.4°F-9.2°C 85% Calm Calm -- 29.55 in1000.7 mb - 0.00 in0.0 mm 0.00 in0.0 mm
11:17 AM 19.0°F-7.2°C 15.3°F-9.3°C 85% Calm Calm -- 29.56 in1001.0 mb - 0.00 in0.0 mm 0.00 in0.0 mm
11:12 AM 18.9°F-7.3°C 14.9°F-9.5°C 84% Calm Calm -- 29.56 in1001.0 mb - 0.00 in0.0 mm 0.00 in0.0 mm
11:07 AM 18.9°F-7.3°C 14.9°F-9.5°C 84% Calm Calm -- 29.56 in1001.0 mb - 0.00 in0.0 mm 0.00 in0.0 mm
11:02 AM 18.9°F-7.3°C 14.9°F-9.5°C 84% Calm Calm -- 29.56 in1001.0 mb - 0.00 in0.0 mm 0.00 in0.0 mm
10:57 AM 19.0°F-7.2°C 15.1°F-9.4°C 84% Calm Calm -- 29.56 in1001.0 mb - 0.00 in0.0 mm 0.00 in0.0 mm
10:52 AM 19.2°F-7.1°C 14.9°F-9.5°C 83% Calm Calm -- 29.56 in1001.0 mb - 0.00 in0.0 mm 0.00 in0.0 mm
10:47 AM 19.6°F-6.9°C 15.3°F-9.3°C 83% Calm Calm -- 29.56 in1001.0 mb - 0.00 in0.0 mm 0.00 in0.0 mm
10:42 AM 19.8°F-6.8°C 15.8°F-9.0°C 84% Calm Calm -- 29.56 in1001.0 mb - 0.00 in0.0 mm 0.00 in0.0 mm
10:37 AM 19.8°F-6.8°C 15.8°F-9.0°C 84% Calm Calm -- 29.57 in1001.4 mb - 0.00 in0.0 mm 0.00 in0.0 mm
10:32 AM 19.4°F-7.0°C 15.6°F-9.1°C 85% Calm Calm -- 29.57 in1001.4 mb - 0.00 in0.0 mm 0.00 in0.0 mm
10:27 AM 19.0°F-7.2°C 15.3°F-9.3°C 85% Calm Calm -- 29.57 in1001.4 mb - 0.00 in0.0 mm 0.00 in0.0 mm
10:22 AM 19.0°F-7.2°C 15.1°F-9.4°C 84% Calm Calm 2.0 mph3.2 kmh 29.57 in1001.4 mb - 0.00 in0.0 mm 0.00 in0.0 mm
10:17 AM 18.9°F-7.3°C 15.1°F-9.4°C 85% Calm Calm -- 29.57 in1001.4 mb - 0.00 in0.0 mm 0.00 in0.0 mm
10:12 AM 18.9°F-7.3°C 15.1°F-9.4°C 85% Calm Calm -- 29.57 in1001.4 mb - 0.00 in0.0 mm 0.00 in0.0 mm
10:07 AM 18.7°F-7.4°C 15.3°F-9.3°C 86% Calm Calm 0.9 mph1.4 kmh 29.57 in1001.4 mb - 0.00 in0.0 mm 0.00 in0.0 mm
10:02 AM 18.1°F-7.7°C 14.7°F-9.6°C 86% Calm Calm -- 29.57 in1001.4 mb - 0.00 in0.0 mm 0.00 in0.0 mm
09:57 AM 18.0°F-7.8°C 14.5°F-9.7°C 86% Calm Calm -- 29.57 in1001.4 mb - 0.00 in0.0 mm 0.00 in0.0 mm
09:52 AM 18.0°F-7.8°C 14.5°F-9.7°C 86% Calm Calm -- 29.57 in1001.4 mb - 0.00 in0.0 mm 0.00 in0.0 mm
09:47 AM 18.1°F-7.7°C 14.9°F-9.5°C 87% Calm Calm -- 29.57 in1001.4 mb - 0.00 in0.0 mm 0.00 in0.0 mm
09:42 AM 18.0°F-7.8°C 15.1°F-9.4°C 88% Calm Calm -- 29.57 in1001.4 mb - 0.00 in0.0 mm 0.00 in0.0 mm
09:37 AM 17.6°F-8.0°C 14.7°F-9.6°C 88% Calm Calm -- 29.57 in1001.4 mb - 0.00 in0.0 mm 0.00 in0.0 mm
09:32 AM 17.2°F-8.2°C 14.4°F-9.8°C 88% Calm Calm -- 29.57 in1001.4 mb - 0.00 in0.0 mm 0.00 in0.0 mm
09:27 AM 17.1°F-8.3°C 14.2°F-9.9°C 88% Calm Calm -- 29.57 in1001.4 mb - 0.00 in0.0 mm 0.00 in0.0 mm
09:22 AM 16.7°F-8.5°C 14.0°F-10.0°C 89% Calm Calm -- 29.57 in1001.4 mb - 0.00 in0.0 mm 0.00 in0.0 mm
09:17 AM 16.3°F-8.7°C 14.0°F-10.0°C 90% Calm Calm -- 29.57 in1001.4 mb - 0.00 in0.0 mm 0.00 in0.0 mm
09:12 AM 16.0°F-8.9°C 13.6°F-10.2°C 90% Calm Calm 2.0 mph3.2 kmh 29.57 in1001.4 mb - 0.00 in0.0 mm 0.00 in0.0 mm
09:07 AM 15.3°F-9.3°C 12.9°F-10.6°C 90% Calm Calm -- 29.57 in1001.4 mb - 0.00 in0.0 mm 0.00 in0.0 mm
09:02 AM 14.9°F-9.5°C 12.6°F-10.8°C 90% Calm Calm -- 29.57 in1001.4 mb - 0.00 in0.0 mm 0.00 in0.0 mm
08:57 AM 14.5°F-9.7°C 12.2°F-11.0°C 90% Calm Calm -- 29.57 in1001.4 mb - 0.00 in0.0 mm 0.00 in0.0 mm
08:52 AM 14.2°F-9.9°C 11.8°F-11.2°C 90% Calm Calm -- 29.57 in1001.4 mb - 0.00 in0.0 mm 0.00 in0.0 mm
08:47 AM 13.6°F-10.2°C 11.3°F-11.5°C 90% Calm Calm -- 29.57 in1001.4 mb - 0.00 in0.0 mm 0.00 in0.0 mm
08:42 AM 13.3°F-10.4°C 10.9°F-11.7°C 90% Calm Calm -- 29.57 in1001.4 mb - 0.00 in0.0 mm 0.00 in0.0 mm
08:37 AM 12.9°F-10.6°C 10.2°F-12.1°C 89% Calm Calm -- 29.57 in1001.4 mb - 0.00 in0.0 mm 0.00 in0.0 mm
08:32 AM 12.7°F-10.7°C 10.0°F-12.2°C 89% Calm Calm -- 29.57 in1001.4 mb - 0.00 in0.0 mm 0.00 in0.0 mm
08:27 AM 12.6°F-10.8°C 9.9°F-12.3°C 89% Calm Calm -- 29.57 in1001.4 mb - 0.00 in0.0 mm 0.00 in0.0 mm
08:22 AM 12.4°F-10.9°C 9.7°F-12.4°C 89% Calm Calm -- 29.57 in1001.4 mb - 0.00 in0.0 mm 0.00 in0.0 mm
08:17 AM 12.4°F-10.9°C 9.7°F-12.4°C 89% Calm Calm -- 29.57 in1001.4 mb - 0.00 in0.0 mm 0.00 in0.0 mm
08:12 AM 12.0°F-11.1°C 9.7°F-12.4°C 90% Calm Calm -- 29.57 in1001.4 mb - 0.00 in0.0 mm 0.00 in0.0 mm
08:07 AM 11.8°F-11.2°C 9.5°F-12.5°C 90% Calm Calm -- 29.57 in1001.4 mb - 0.00 in0.0 mm 0.00 in0.0 mm
08:02 AM 11.7°F-11.3°C 9.3°F-12.6°C 90% Calm Calm -- 29.58 in1001.7 mb - 0.00 in0.0 mm 0.00 in0.0 mm
07:57 AM 11.3°F-11.5°C 8.8°F-12.9°C 89% Calm Calm -- 29.58 in1001.7 mb - 0.00 in0.0 mm 0.00 in0.0 mm
07:52 AM 11.1°F-11.6°C 8.8°F-12.9°C 90% Calm Calm -- 29.57 in1001.4 mb - 0.00 in0.0 mm 0.00 in0.0 mm
07:47 AM 10.9°F-11.7°C 8.4°F-13.1°C 89% Calm Calm -- 29.57 in1001.4 mb - 0.00 in0.0 mm 0.00 in0.0 mm
07:42 AM 10.8°F-11.8°C 8.2°F-13.2°C 89% Calm Calm -- 29.57 in1001.4 mb - 0.00 in0.0 mm 0.00 in0.0 mm
07:37 AM 10.4°F-12.0°C 7.9°F-13.4°C 89% Calm Calm -- 29.56 in1001.0 mb - 0.00 in0.0 mm 0.00 in0.0 mm
07:32 AM 10.2°F-12.1°C 7.7°F-13.5°C 89% Calm Calm -- 29.57 in1001.4 mb - 0.00 in0.0 mm 0.00 in0.0 mm
07:27 AM 10.0°F-12.2°C 7.5°F-13.6°C 89% Calm Calm -- 29.56 in1001.0 mb - 0.00 in0.0 mm 0.00 in0.0 mm
07:22 AM 9.9°F-12.3°C 7.3°F-13.7°C 89% Calm Calm -- 29.56 in1001.0 mb - 0.00 in0.0 mm 0.00 in0.0 mm
07:17 AM 9.7°F-12.4°C 7.2°F-13.8°C 89% Calm Calm -- 29.56 in1001.0 mb - 0.00 in0.0 mm 0.00 in0.0 mm
07:12 AM 9.7°F-12.4°C 7.2°F-13.8°C 89% Calm Calm -- 29.56 in1001.0 mb - 0.00 in0.0 mm 0.00 in0.0 mm
07:07 AM 9.7°F-12.4°C 7.2°F-13.8°C 89% Calm Calm -- 29.56 in1001.0 mb - 0.00 in0.0 mm 0.00 in0.0 mm
07:02 AM 9.7°F-12.4°C 7.2°F-13.8°C 89% Calm Calm -- 29.56 in1001.0 mb - 0.00 in0.0 mm 0.00 in0.0 mm
06:57 AM 9.5°F-12.5°C 7.0°F-13.9°C 89% Calm Calm -- 29.56 in1001.0 mb - 0.00 in0.0 mm 0.00 in0.0 mm
06:52 AM 9.5°F-12.5°C 7.0°F-13.9°C 89% Calm Calm -- 29.56 in1001.0 mb - 0.00 in0.0 mm 0.00 in0.0 mm
06:47 AM 9.5°F-12.5°C 7.0°F-13.9°C 89% Calm Calm -- 29.56 in1001.0 mb - 0.00 in0.0 mm 0.00 in0.0 mm
06:42 AM 9.3°F-12.6°C 6.8°F-14.0°C 89% Calm Calm -- 29.56 in1001.0 mb - 0.00 in0.0 mm 0.00 in0.0 mm
06:37 AM 9.3°F-12.6°C 6.8°F-14.0°C 89% Calm Calm -- 29.55 in1000.7 mb - 0.00 in0.0 mm 0.00 in0.0 mm
06:32 AM 9.3°F-12.6°C 6.8°F-14.0°C 89% Calm Calm -- 29.55 in1000.7 mb - 0.00 in0.0 mm 0.00 in0.0 mm
06:27 AM 9.3°F-12.6°C 6.8°F-14.0°C 89% Calm Calm -- 29.56 in1001.0 mb - 0.00 in0.0 mm 0.00 in0.0 mm
06:22 AM 9.1°F-12.7°C 6.6°F-14.1°C 89% Calm Calm -- 29.56 in1001.0 mb - 0.00 in0.0 mm 0.00 in0.0 mm
06:17 AM 9.1°F-12.7°C 6.6°F-14.1°C 89% Calm Calm -- 29.56 in1001.0 mb - 0.00 in0.0 mm 0.00 in0.0 mm
06:12 AM 9.0°F-12.8°C 6.4°F-14.2°C 89% Calm Calm -- 29.56 in1001.0 mb - 0.00 in0.0 mm 0.00 in0.0 mm
06:07 AM 9.0°F-12.8°C 6.4°F-14.2°C 89% Calm Calm -- 29.55 in1000.7 mb - 0.00 in0.0 mm 0.00 in0.0 mm
06:02 AM 9.0°F-12.8°C 6.4°F-14.2°C 89% Calm Calm -- 29.56 in1001.0 mb - 0.00 in0.0 mm 0.00 in0.0 mm
05:57 AM 9.0°F-12.8°C 6.4°F-14.2°C 89% 0.9 mph SE1.4 kmh SE -- 29.55 in1000.7 mb - 0.00 in0.0 mm 0.00 in0.0 mm
05:52 AM 9.0°F-12.8°C 6.4°F-14.2°C 89% 0.9 mph SE1.4 kmh SE -- 29.56 in1001.0 mb - 0.00 in0.0 mm 0.00 in0.0 mm
05:47 AM 9.0°F-12.8°C 6.4°F-14.2°C 89% 0.9 mph SE1.4 kmh SE 0.9 mph1.4 kmh 29.56 in1001.0 mb - 0.00 in0.0 mm 0.00 in0.0 mm
05:42 AM 9.0°F-12.8°C 6.4°F-14.2°C 89% 0.9 mph SE1.4 kmh SE 2.0 mph3.2 kmh 29.56 in1001.0 mb - 0.00 in0.0 mm 0.00 in0.0 mm
05:37 AM 9.0°F-12.8°C 6.4°F-14.2°C 89% Calm Calm -- 29.56 in1001.0 mb - 0.00 in0.0 mm 0.00 in0.0 mm
05:32 AM 9.0°F-12.8°C 6.4°F-14.2°C 89% Calm Calm -- 29.56 in1001.0 mb - 0.00 in0.0 mm 0.00 in0.0 mm
05:27 AM 8.8°F-12.9°C 6.3°F-14.3°C 89% Calm Calm -- 29.56 in1001.0 mb - 0.00 in0.0 mm 0.00 in0.0 mm
05:22 AM 8.8°F-12.9°C 6.3°F-14.3°C 89% Calm Calm -- 29.56 in1001.0 mb - 0.00 in0.0 mm 0.00 in0.0 mm
05:17 AM 8.6°F-13.0°C 6.1°F-14.4°C 89% Calm Calm -- 29.56 in1001.0 mb - 0.00 in0.0 mm 0.00 in0.0 mm
05:12 AM 8.4°F-13.1°C 5.9°F-14.5°C 89% Calm Calm -- 29.56 in1001.0 mb - 0.00 in0.0 mm 0.00 in0.0 mm
05:07 AM 8.2°F-13.2°C 5.7°F-14.6°C 89% Calm Calm -- 29.56 in1001.0 mb - 0.00 in0.0 mm 0.00 in0.0 mm
05:02 AM 8.1°F-13.3°C 5.5°F-14.7°C 89% Calm Calm -- 29.56 in1001.0 mb - 0.00 in0.0 mm 0.00 in0.0 mm
04:57 AM 8.1°F-13.3°C 5.5°F-14.7°C 89% Calm Calm -- 29.56 in1001.0 mb - 0.00 in0.0 mm 0.00 in0.0 mm
04:52 AM 7.9°F-13.4°C 5.4°F-14.8°C 89% Calm Calm -- 29.56 in1001.0 mb - 0.00 in0.0 mm 0.00 in0.0 mm
04:47 AM 7.5°F-13.6°C 5.0°F-15.0°C 89% Calm Calm -- 29.56 in1001.0 mb - 0.00 in0.0 mm 0.00 in0.0 mm
04:42 AM 7.5°F-13.6°C 5.0°F-15.0°C 89% 0.9 mph SE1.4 kmh SE -- 29.56 in1001.0 mb - 0.00 in0.0 mm 0.00 in0.0 mm
04:37 AM 7.3°F-13.7°C 4.8°F-15.1°C 89% 0.9 mph SE1.4 kmh SE -- 29.56 in1001.0 mb - 0.00 in0.0 mm 0.00 in0.0 mm
04:32 AM 7.2°F-13.8°C 4.6°F-15.2°C 89% 0.9 mph SE1.4 kmh SE 2.0 mph3.2 kmh 29.55 in1000.7 mb - 0.00 in0.0 mm 0.00 in0.0 mm
04:27 AM 6.8°F-14.0°C 4.3°F-15.4°C 89% Calm Calm 2.0 mph3.2 kmh 29.56 in1001.0 mb - 0.00 in0.0 mm 0.00 in0.0 mm
04:22 AM 6.4°F-14.2°C 3.7°F-15.7°C 88% Calm Calm -- 29.56 in1001.0 mb - 0.00 in0.0 mm 0.00 in0.0 mm
04:17 AM 6.4°F-14.2°C 3.7°F-15.7°C 88% Calm Calm -- 29.55 in1000.7 mb - 0.00 in0.0 mm 0.00 in0.0 mm
04:12 AM 6.3°F-14.3°C 3.6°F-15.8°C 88% Calm Calm -- 29.56 in1001.0 mb - 0.00 in0.0 mm 0.00 in0.0 mm
04:07 AM 6.1°F-14.4°C 3.4°F-15.9°C 88% Calm Calm -- 29.56 in1001.0 mb - 0.00 in0.0 mm 0.00 in0.0 mm
04:02 AM 6.1°F-14.4°C 3.4°F-15.9°C 88% Calm Calm -- 29.56 in1001.0 mb - 0.00 in0.0 mm 0.00 in0.0 mm
03:57 AM 5.9°F-14.5°C 3.2°F-16.0°C 88% Calm Calm -- 29.56 in1001.0 mb - 0.00 in0.0 mm 0.00 in0.0 mm
03:52 AM 5.9°F-14.5°C 3.2°F-16.0°C 88% Calm Calm -- 29.56 in1001.0 mb - 0.00 in0.0 mm 0.00 in0.0 mm
03:47 AM 5.7°F-14.6°C 3.0°F-16.1°C 88% Calm Calm -- 29.56 in1001.0 mb - 0.00 in0.0 mm 0.00 in0.0 mm
03:42 AM 5.5°F-14.7°C 2.8°F-16.2°C 88% Calm Calm -- 29.56 in1001.0 mb - 0.00 in0.0 mm 0.00 in0.0 mm
03:37 AM 5.5°F-14.7°C 2.8°F-16.2°C 88% Calm Calm -- 29.56 in1001.0 mb - 0.00 in0.0 mm 0.00 in0.0 mm
03:32 AM 5.4°F-14.8°C 2.7°F-16.3°C 88% Calm Calm -- 29.56 in1001.0 mb - 0.00 in0.0 mm 0.00 in0.0 mm
03:27 AM 5.4°F-14.8°C 2.7°F-16.3°C 88% Calm Calm -- 29.56 in1001.0 mb - 0.00 in0.0 mm 0.00 in0.0 mm
03:22 AM 5.2°F-14.9°C 2.5°F-16.4°C 88% Calm Calm -- 29.56 in1001.0 mb - 0.00 in0.0 mm 0.00 in0.0 mm
03:17 AM 5.2°F-14.9°C 2.1°F-16.6°C 87% Calm Calm -- 29.56 in1001.0 mb - 0.00 in0.0 mm 0.00 in0.0 mm
03:12 AM 5.2°F-14.9°C 2.1°F-16.6°C 87% Calm Calm -- 29.57 in1001.4 mb - 0.00 in0.0 mm 0.00 in0.0 mm
03:07 AM 5.0°F-15.0°C 1.9°F-16.7°C 87% Calm Calm -- 29.56 in1001.0 mb - 0.00 in0.0 mm 0.00 in0.0 mm
03:02 AM 5.0°F-15.0°C 4.6°F-15.2°C 98% Calm Calm -- 29.56 in1001.0 mb - 0.00 in0.0 mm 0.00 in0.0 mm
02:57 AM 4.8°F-15.1°C 1.8°F-16.8°C 87% Calm Calm 0.9 mph1.4 kmh 29.56 in1001.0 mb - 0.00 in0.0 mm 0.00 in0.0 mm
02:52 AM 4.8°F-15.1°C 1.8°F-16.8°C 87% Calm Calm -- 29.57 in1001.4 mb - 0.00 in0.0 mm 0.00 in0.0 mm
02:47 AM 4.8°F-15.1°C 1.8°F-16.8°C 87% Calm Calm -- 29.57 in1001.4 mb - 0.00 in0.0 mm 0.00 in0.0 mm
02:42 AM 4.6°F-15.2°C 1.6°F-16.9°C 87% Calm Calm -- 29.57 in1001.4 mb - 0.00 in0.0 mm 0.00 in0.0 mm
02:37 AM 4.6°F-15.2°C 1.6°F-16.9°C 87% Calm Calm -- 29.56 in1001.0 mb - 0.00 in0.0 mm 0.00 in0.0 mm
02:32 AM 4.8°F-15.1°C 1.8°F-16.8°C 87% Calm Calm -- 29.57 in1001.4 mb - 0.00 in0.0 mm 0.00 in0.0 mm
02:27 AM 4.8°F-15.1°C 1.8°F-16.8°C 87% Calm Calm -- 29.57 in1001.4 mb - 0.00 in0.0 mm 0.00 in0.0 mm
02:22 AM 4.8°F-15.1°C 1.6°F-16.9°C 86% Calm Calm -- 29.57 in1001.4 mb - 0.00 in0.0 mm 0.00 in0.0 mm
02:17 AM 4.8°F-15.1°C 1.6°F-16.9°C 86% Calm Calm -- 29.57 in1001.4 mb - 0.00 in0.0 mm 0.00 in0.0 mm
02:12 AM 5.2°F-14.9°C 2.1°F-16.6°C 87% Calm Calm -- 29.58 in1001.7 mb - 0.00 in0.0 mm 0.00 in0.0 mm
02:07 AM 5.2°F-14.9°C 1.9°F-16.7°C 86% Calm Calm -- 29.57 in1001.4 mb - 0.00 in0.0 mm 0.00 in0.0 mm
02:02 AM 5.4°F-14.8°C 2.1°F-16.6°C 86% Calm Calm -- 29.57 in1001.4 mb - 0.00 in0.0 mm 0.00 in0.0 mm
01:57 AM 5.5°F-14.7°C 2.3°F-16.5°C 86% Calm Calm -- 29.58 in1001.7 mb - 0.00 in0.0 mm 0.00 in0.0 mm
01:52 AM 5.9°F-14.5°C 2.7°F-16.3°C 86% Calm Calm -- 29.57 in1001.4 mb - 0.00 in0.0 mm 0.00 in0.0 mm
01:47 AM 6.3°F-14.3°C 3.2°F-16.0°C 87% Calm Calm -- 29.58 in1001.7 mb - 0.00 in0.0 mm 0.00 in0.0 mm
01:42 AM 6.4°F-14.2°C 3.2°F-16.0°C 86% Calm Calm -- 29.57 in1001.4 mb - 0.00 in0.0 mm 0.00 in0.0 mm
01:37 AM 7.0°F-13.9°C 3.9°F-15.6°C 87% Calm Calm -- 29.58 in1001.7 mb - 0.00 in0.0 mm 0.00 in0.0 mm
01:32 AM 7.2°F-13.8°C 4.1°F-15.5°C 87% Calm Calm -- 29.58 in1001.7 mb - 0.00 in0.0 mm 0.00 in0.0 mm
01:27 AM 7.5°F-13.6°C 4.5°F-15.3°C 87% Calm Calm -- 29.57 in1001.4 mb - 0.00 in0.0 mm 0.00 in0.0 mm
01:22 AM 7.9°F-13.4°C 4.8°F-15.1°C 87% Calm Calm -- 29.58 in1001.7 mb - 0.00 in0.0 mm 0.00 in0.0 mm
01:17 AM 8.1°F-13.3°C 5.0°F-15.0°C 87% Calm Calm -- 29.58 in1001.7 mb - 0.00 in0.0 mm 0.00 in0.0 mm
01:12 AM 8.4°F-13.1°C 5.4°F-14.8°C 87% Calm Calm -- 29.58 in1001.7 mb - 0.00 in0.0 mm 0.00 in0.0 mm
01:07 AM 8.6°F-13.0°C 5.7°F-14.6°C 88% Calm Calm -- 29.58 in1001.7 mb - 0.00 in0.0 mm 0.00 in0.0 mm
01:02 AM 8.8°F-12.9°C 5.9°F-14.5°C 88% Calm Calm -- 29.58 in1001.7 mb - 0.00 in0.0 mm 0.00 in0.0 mm
12:57 AM 9.0°F-12.8°C 5.9°F-14.5°C 87% Calm Calm -- 29.58 in1001.7 mb - 0.00 in0.0 mm 0.00 in0.0 mm
12:52 AM 9.3°F-12.6°C 6.3°F-14.3°C 87% Calm Calm -- 29.58 in1001.7 mb - 0.00 in0.0 mm 0.00 in0.0 mm
12:47 AM 9.9°F-12.3°C 6.8°F-14.0°C 87% Calm Calm -- 29.58 in1001.7 mb - 0.00 in0.0 mm 0.00 in0.0 mm
12:42 AM 10.2°F-12.1°C 7.2°F-13.8°C 87% Calm Calm -- 29.58 in1001.7 mb - 0.00 in0.0 mm 0.00 in0.0 mm
12:37 AM 10.8°F-11.8°C 7.9°F-13.4°C 88% Calm Calm -- 29.58 in1001.7 mb - 0.00 in0.0 mm 0.00 in0.0 mm
12:32 AM 11.1°F-11.6°C 8.2°F-13.2°C 88% Calm Calm -- 29.58 in1001.7 mb - 0.00 in0.0 mm 0.00 in0.0 mm
12:27 AM 11.5°F-11.4°C 8.6°F-13.0°C 88% Calm Calm -- 29.58 in1001.7 mb - 0.00 in0.0 mm 0.00 in0.0 mm
12:22 AM 11.7°F-11.3°C 8.8°F-12.9°C 88% Calm Calm -- 29.58 in1001.7 mb - 0.00 in0.0 mm 0.00 in0.0 mm
12:17 AM 12.2°F-11.0°C 9.3°F-12.6°C 88% Calm Calm -- 29.58 in1001.7 mb - 0.00 in0.0 mm 0.00 in0.0 mm
12:12 AM 12.7°F-10.7°C 10.0°F-12.2°C 89% Calm Calm -- 29.58 in1001.7 mb - 0.00 in0.0 mm 0.00 in0.0 mm
12:07 AM 13.3°F-10.4°C 10.6°F-11.9°C 89% Calm Calm -- 29.58 in1001.7 mb - 0.00 in0.0 mm 0.00 in0.0 mm
12:02 AM 13.5°F-10.3°C 11.1°F-11.6°C 90% Calm Calm -- 29.58 in1001.7 mb - 0.00 in0.0 mm 0.02 in0.5 mm